Time;durP1;ratioP1;P1;durP2;ratioP2;P2;SDS_P1;SDS_P2;PMS_P1;PMS_P2;Temp;Humidity;BMP_temperature;BMP_pressure;BME280_temperature;BME280_humidity;BME280_pressure;Samples;Min_cycle;Max_cycle;Signal;HPM_P1;HPM_P2
2021/11/05 00:00:37;;;;;;;3.27;1.20;;;;;;;;;;5050839;28;20317;-74
2021/11/05 00:03:04;;;;;;;2.03;1.20;;;;;;;;;;5053501;28;20219;-74
2021/11/05 00:05:32;;;;;;;4.30;1.30;;;;;;;;;;5054173;28;20230;-73
2021/11/05 00:08:02;;;;;;;2.47;1.37;;;;;;;;;;5050730;28;20740;-74
2021/11/05 00:10:30;;;;;;;5.07;1.53;;;;;;;;;;5051241;28;20549;-74
2021/11/05 00:12:57;;;;;;;2.20;1.03;;;;;;;;;;5052670;28;21098;-73
2021/11/05 00:15:23;;;;;;;3.17;1.50;;;;;;;;;;5053242;28;20231;-73
2021/11/05 00:17:50;;;;;;;4.37;1.47;;;;;;;;;;5052900;28;20226;-74
2021/11/05 00:20:16;;;;;;;3.90;2.00;;;;;;;;;;5053919;28;20652;-73
2021/11/05 00:22:42;;;;;;;4.73;1.57;;;;;;;;;;5053617;28;20222;-74
2021/11/05 00:25:09;;;;;;;7.33;1.80;;;;;;;;;;5050467;28;20261;-73
2021/11/05 00:27:39;;;;;;;2.70;2.00;;;;;;;;;;5053413;28;20650;-74
2021/11/05 00:30:07;;;;;;;3.23;1.63;;;;;;;;;;5053383;28;20214;-73
2021/11/05 00:32:34;;;;;;;4.67;1.90;;;;;;;;;;5051509;28;20218;-73
2021/11/05 00:35:00;;;;;;;5.33;1.73;;;;;;;;;;5052657;28;20888;-74
2021/11/05 00:37:27;;;;;;;3.43;1.80;;;;;;;;;;5053542;28;20646;-73
2021/11/05 00:39:53;;;;;;;5.20;1.53;;;;;;;;;;5051980;28;20236;-73
2021/11/05 00:42:20;;;;;;;5.60;2.07;;;;;;;;;;5051667;28;20198;-73
2021/11/05 00:44:48;;;;;;;4.10;1.87;;;;;;;;;;5053614;28;20237;-73
2021/11/05 00:47:16;;;;;;;5.83;1.73;;;;;;;;;;5055602;28;20214;-73
2021/11/05 00:49:42;;;;;;;7.57;1.90;;;;;;;;;;5053203;28;20206;-73
2021/11/05 00:52:08;;;;;;;5.17;1.70;;;;;;;;;;5051040;28;20242;-74
2021/11/05 00:54:35;;;;;;;5.20;1.70;;;;;;;;;;5053512;28;20280;-73
2021/11/05 00:57:01;;;;;;;5.13;1.53;;;;;;;;;;5053047;28;20218;-73
2021/11/05 00:59:28;;;;;;;7.93;1.73;;;;;;;;;;5053672;28;20233;-73
2021/11/05 01:01:56;;;;;;;3.80;1.73;;;;;;;;;;5052246;28;20257;-74
2021/11/05 01:04:22;;;;;;;4.70;1.60;;;;;;;;;;5052587;28;20237;-73
2021/11/05 01:06:48;;;;;;;2.70;1.10;;;;;;;;;;5051505;28;20766;-73
2021/11/05 01:09:15;;;;;;;4.20;1.00;;;;;;;;;;5052226;28;20295;-73
2021/11/05 01:11:41;;;;;;;4.90;1.50;;;;;;;;;;5052817;28;20233;-73
2021/11/05 01:14:08;;;;;;;6.23;0.97;;;;;;;;;;5051889;28;20628;-73
2021/11/05 01:16:34;;;;;;;4.27;1.00;;;;;;;;;;5052804;28;20214;-73
2021/11/05 01:19:03;;;;;;;6.20;0.90;;;;;;;;;;5052268;28;20218;-73
2021/11/05 01:21:29;;;;;;;5.00;0.93;;;;;;;;;;5051529;28;20218;-73
2021/11/05 01:23:56;;;;;;;4.77;1.00;;;;;;;;;;5052025;28;20297;-73
2021/11/05 01:26:22;;;;;;;4.87;0.93;;;;;;;;;;5053720;28;20272;-73
2021/11/05 01:28:49;;;;;;;2.93;0.80;;;;;;;;;;5051822;28;20227;-73
2021/11/05 01:31:17;;;;;;;6.57;1.07;;;;;;;;;;5052624;28;20632;-74
2021/11/05 01:33:44;;;;;;;3.40;0.90;;;;;;;;;;5052290;28;20252;-73
2021/11/05 01:36:13;;;;;;;5.23;0.90;;;;;;;;;;5052618;28;20273;-74
2021/11/05 01:38:39;;;;;;;3.27;1.10;;;;;;;;;;5051310;28;20258;-73
2021/11/05 01:41:06;;;;;;;6.67;1.00;;;;;;;;;;5054276;28;20285;-73
2021/11/05 01:43:32;;;;;;;8.50;1.13;;;;;;;;;;5057228;28;20272;-73
2021/11/05 01:45:59;;;;;;;5.30;0.97;;;;;;;;;;5054856;28;20223;-73
2021/11/05 01:48:26;;;;;;;3.50;1.10;;;;;;;;;;5056704;28;20212;-73
2021/11/05 01:50:53;;;;;;;6.90;1.20;;;;;;;;;;5056383;28;20254;-73
2021/11/05 01:53:21;;;;;;;4.23;0.90;;;;;;;;;;5055725;28;20383;-73
2021/11/05 01:55:48;;;;;;;7.67;1.10;;;;;;;;;;5055304;28;20662;-73
2021/11/05 01:58:14;;;;;;;6.07;0.90;;;;;;;;;;5055041;28;20651;-73
2021/11/05 02:00:41;;;;;;;7.77;1.40;;;;;;;;;;5057229;28;20240;-73
2021/11/05 02:03:07;;;;;;;4.80;1.10;;;;;;;;;;5055484;28;20268;-73
2021/11/05 02:05:35;;;;;;;3.77;1.13;;;;;;;;;;5056394;28;20325;-73
2021/11/05 02:08:02;;;;;;;3.13;1.10;;;;;;;;;;5056219;28;20288;-73
2021/11/05 02:10:31;;;;;;;6.17;1.10;;;;;;;;;;5055357;28;20759;-73
2021/11/05 02:12:57;;;;;;;5.77;0.90;;;;;;;;;;5052599;28;20219;-73
2021/11/05 02:15:25;;;;;;;8.27;1.13;;;;;;;;;;5056343;28;20266;-73
2021/11/05 02:17:52;;;;;;;9.30;1.13;;;;;;;;;;5056270;28;20212;-73
2021/11/05 02:20:20;;;;;;;6.17;0.97;;;;;;;;;;5052349;28;20219;-73
2021/11/05 02:22:48;;;;;;;7.70;1.07;;;;;;;;;;5056971;28;20214;-73
2021/11/05 02:25:15;;;;;;;4.97;1.50;;;;;;;;;;5055773;28;20229;-73
2021/11/05 02:27:42;;;;;;;5.93;0.93;;;;;;;;;;5055716;28;20218;-74
2021/11/05 02:30:11;;;;;;;5.47;0.90;;;;;;;;;;5054448;28;20223;-73
2021/11/05 02:32:39;;;;;;;5.13;1.00;;;;;;;;;;5056331;28;21068;-73
2021/11/05 02:35:07;;;;;;;13.13;2.03;;;;;;;;;;5054857;28;20246;-73
2021/11/05 02:37:33;;;;;;;9.33;1.10;;;;;;;;;;5054616;28;20207;-73
2021/11/05 02:40:01;;;;;;;5.50;1.07;;;;;;;;;;5055641;28;20238;-73
2021/11/05 02:42:28;;;;;;;6.70;0.97;;;;;;;;;;5054696;28;20253;-73
2021/11/05 02:44:54;;;;;;;8.13;1.03;;;;;;;;;;5053976;28;20236;-73
2021/11/05 02:47:24;;;;;;;7.80;1.47;;;;;;;;;;5056686;28;20223;-73
2021/11/05 02:49:53;;;;;;;5.17;1.07;;;;;;;;;;5055725;28;20586;-73
2021/11/05 02:52:20;;;;;;;6.07;0.77;;;;;;;;;;5054613;28;20736;-73
2021/11/05 02:54:47;;;;;;;6.17;1.13;;;;;;;;;;5053166;28;21974;-73
2021/11/05 02:57:15;;;;;;;3.60;0.90;;;;;;;;;;5054579;28;20210;-73
2021/11/05 02:59:41;;;;;;;6.43;0.90;;;;;;;;;;5054238;28;20230;-73
2021/11/05 03:02:08;;;;;;;4.17;0.73;;;;;;;;;;5054612;28;20277;-73
2021/11/05 03:04:35;;;;;;;4.03;1.10;;;;;;;;;;5054350;28;20223;-73
2021/11/05 03:07:05;;;;;;;4.73;1.00;;;;;;;;;;5054744;28;20838;-73
2021/11/05 03:09:33;;;;;;;5.73;1.00;;;;;;;;;;5052125;28;20230;-73
2021/11/05 03:12:01;;;;;;;4.73;1.00;;;;;;;;;;5053172;28;20720;-73
2021/11/05 03:14:29;;;;;;;4.43;1.40;;;;;;;;;;5053913;28;20911;-73
2021/11/05 03:16:56;;;;;;;8.30;1.43;;;;;;;;;;5053047;28;20207;-73
2021/11/05 03:19:23;;;;;;;10.37;1.13;;;;;;;;;;5053734;28;20763;-73
2021/11/05 03:21:50;;;;;;;7.30;1.40;;;;;;;;;;5052690;28;20229;-73
2021/11/05 03:24:16;;;;;;;6.20;1.03;;;;;;;;;;5051981;28;20324;-73
2021/11/05 03:26:43;;;;;;;9.23;1.07;;;;;;;;;;5053130;28;20280;-73
2021/11/05 03:29:09;;;;;;;4.63;1.10;;;;;;;;;;5055209;28;20634;-73
2021/11/05 03:31:37;;;;;;;5.67;1.30;;;;;;;;;;5051904;28;20355;-73
2021/11/05 03:34:04;;;;;;;6.80;1.50;;;;;;;;;;5051994;28;20221;-73
2021/11/05 03:36:31;;;;;;;3.43;0.73;;;;;;;;;;5052850;28;20608;-73
2021/11/05 03:38:57;;;;;;;6.17;1.27;;;;;;;;;;5054773;28;20234;-73
2021/11/05 03:41:24;;;;;;;3.47;1.00;;;;;;;;;;5054224;28;20670;-73
2021/11/05 03:43:51;;;;;;;7.20;1.00;;;;;;;;;;5052777;28;20273;-73
2021/11/05 03:46:17;;;;;;;5.10;0.80;;;;;;;;;;5053274;28;20209;-73
2021/11/05 03:48:45;;;;;;;3.57;0.90;;;;;;;;;;5053865;28;20276;-73
2021/11/05 03:51:12;;;;;;;3.93;0.83;;;;;;;;;;5051929;28;20218;-73
2021/11/05 03:53:40;;;;;;;4.10;1.10;;;;;;;;;;5054506;28;20226;-73
2021/11/05 03:56:06;;;;;;;5.50;1.03;;;;;;;;;;5053983;28;20318;-73
2021/11/05 03:58:34;;;;;;;6.07;1.00;;;;;;;;;;5052678;28;20263;-73
2021/11/05 04:01:00;;;;;;;6.60;0.90;;;;;;;;;;5051801;28;20700;-73
2021/11/05 04:03:27;;;;;;;6.73;1.23;;;;;;;;;;5052845;28;20211;-73
2021/11/05 04:05:54;;;;;;;4.20;0.83;;;;;;;;;;5051674;28;20230;-73
2021/11/05 04:08:21;;;;;;;4.60;0.80;;;;;;;;;;5050426;28;20292;-73
2021/11/05 04:10:47;;;;;;;5.20;1.10;;;;;;;;;;5052047;28;20657;-73
2021/11/05 04:13:14;;;;;;;5.20;0.90;;;;;;;;;;5051984;28;20326;-74
2021/11/05 04:15:40;;;;;;;5.33;1.00;;;;;;;;;;5051539;28;20313;-73
2021/11/05 04:18:07;;;;;;;5.23;1.33;;;;;;;;;;5053128;28;20210;-73
2021/11/05 04:20:34;;;;;;;4.10;0.97;;;;;;;;;;5052883;28;20210;-73
2021/11/05 04:23:05;;;;;;;5.67;1.27;;;;;;;;;;5052087;28;20210;-73
2021/11/05 04:25:32;;;;;;;7.33;1.10;;;;;;;;;;5054237;28;20245;-73
2021/11/05 04:27:59;;;;;;;6.97;1.33;;;;;;;;;;5051847;28;20219;-73
2021/11/05 04:30:25;;;;;;;6.17;0.90;;;;;;;;;;5052657;28;20272;-73
2021/11/05 04:32:52;;;;;;;3.27;0.87;;;;;;;;;;5050356;28;20699;-73
2021/11/05 04:35:18;;;;;;;5.53;1.27;;;;;;;;;;5053352;28;20207;-74
2021/11/05 04:37:45;;;;;;;8.90;1.20;;;;;;;;;;5052993;28;20670;-74
2021/11/05 04:40:12;;;;;;;8.57;1.20;;;;;;;;;;5050707;28;20241;-73
2021/11/05 04:42:39;;;;;;;5.77;1.50;;;;;;;;;;5051799;28;20263;-74
2021/11/05 04:45:06;;;;;;;5.67;1.23;;;;;;;;;;5053857;28;20288;-73
2021/11/05 04:47:32;;;;;;;8.13;1.57;;;;;;;;;;5053132;28;20272;-73
2021/11/05 04:49:58;;;;;;;3.40;1.00;;;;;;;;;;5052104;28;20202;-74
2021/11/05 04:52:25;;;;;;;7.80;1.23;;;;;;;;;;5051950;28;20229;-73
2021/11/05 04:54:51;;;;;;;5.77;1.50;;;;;;;;;;5051347;28;20238;-73
2021/11/05 04:57:20;;;;;;;6.30;1.10;;;;;;;;;;5053157;28;20227;-73
2021/11/05 04:59:47;;;;;;;5.87;1.03;;;;;;;;;;5053021;28;20705;-73
2021/11/05 05:02:13;;;;;;;7.63;1.27;;;;;;;;;;5052872;28;20292;-74
2021/11/05 05:04:39;;;;;;;7.30;1.40;;;;;;;;;;5052943;28;20690;-73
2021/11/05 05:07:06;;;;;;;8.00;1.83;;;;;;;;;;5053073;28;20267;-73
2021/11/05 05:09:32;;;;;;;5.43;0.90;;;;;;;;;;5052163;28;20242;-74
2021/11/05 05:11:59;;;;;;;6.00;1.20;;;;;;;;;;5053080;28;20557;-74
2021/11/05 05:14:26;;;;;;;7.80;1.30;;;;;;;;;;5050589;28;20230;-74
2021/11/05 05:16:53;;;;;;;4.30;1.30;;;;;;;;;;5056181;28;20279;-73
2021/11/05 05:19:20;;;;;;;6.23;0.90;;;;;;;;;;5056307;28;20594;-73
2021/11/05 05:21:47;;;;;;;4.53;1.17;;;;;;;;;;5054482;28;20203;-73
2021/11/05 05:24:13;;;;;;;7.20;1.30;;;;;;;;;;5056834;28;20579;-73
2021/11/05 05:26:40;;;;;;;3.83;1.10;;;;;;;;;;5054917;28;20686;-74
2021/11/05 05:29:06;;;;;;;13.13;1.40;;;;;;;;;;5053697;28;20276;-73
2021/11/05 05:31:34;;;;;;;3.03;1.10;;;;;;;;;;5057450;28;20260;-78
2021/11/05 05:34:01;;;;;;;6.53;1.30;;;;;;;;;;5063582;28;20292;-78
2021/11/05 05:36:27;;;;;;;9.13;1.20;;;;;;;;;;5064253;28;20214;-78
2021/11/05 05:38:54;;;;;;;4.03;1.00;;;;;;;;;;5067789;28;20232;-78
2021/11/05 05:41:20;;;;;;;8.50;1.23;;;;;;;;;;5067483;28;20227;-78
2021/11/05 05:43:46;;;;;;;7.13;1.17;;;;;;;;;;5066815;28;20235;-78
2021/11/05 05:46:13;;;;;;;7.03;1.30;;;;;;;;;;5066479;28;20271;-78
2021/11/05 05:48:41;;;;;;;6.73;1.20;;;;;;;;;;5066377;28;20214;-80
2021/11/05 05:51:07;;;;;;;9.93;1.30;;;;;;;;;;5065032;28;20206;-78
2021/11/05 05:53:34;;;;;;;8.87;1.60;;;;;;;;;;5066636;28;20231;-78
2021/11/05 05:56:01;;;;;;;4.03;1.13;;;;;;;;;;5067666;28;20229;-78
2021/11/05 05:58:27;;;;;;;4.03;1.10;;;;;;;;;;5067721;28;20260;-78
2021/11/05 06:00:54;;;;;;;4.97;1.27;;;;;;;;;;5064653;28;20211;-78
2021/11/05 06:03:21;;;;;;;8.80;1.17;;;;;;;;;;5068176;28;20279;-79
2021/11/05 06:05:49;;;;;;;7.60;1.40;;;;;;;;;;5068595;28;20226;-79
2021/11/05 06:08:15;;;;;;;10.03;1.50;;;;;;;;;;5065223;28;20245;-79
2021/11/05 06:10:41;;;;;;;9.70;1.57;;;;;;;;;;5067676;28;20312;-79
2021/11/05 06:13:08;;;;;;;4.10;1.10;;;;;;;;;;5068448;28;20234;-79
2021/11/05 06:15:34;;;;;;;7.67;1.73;;;;;;;;;;5065680;28;20332;-79
2021/11/05 06:18:02;;;;;;;8.40;1.27;;;;;;;;;;5066988;28;20211;-79
2021/11/05 06:20:28;;;;;;;6.83;1.77;;;;;;;;;;5066741;28;20198;-79
2021/11/05 06:22:56;;;;;;;8.03;1.67;;;;;;;;;;5068923;28;20207;-79
2021/11/05 06:25:23;;;;;;;8.53;1.60;;;;;;;;;;5066288;28;20215;-79
2021/11/05 06:27:49;;;;;;;9.57;1.80;;;;;;;;;;5064782;28;20199;-79
2021/11/05 06:30:16;;;;;;;8.77;1.60;;;;;;;;;;5065790;28;20295;-79
2021/11/05 06:32:42;;;;;;;5.73;1.50;;;;;;;;;;5065760;28;20225;-79
2021/11/05 06:35:10;;;;;;;7.07;1.43;;;;;;;;;;5064704;28;20214;-79
2021/11/05 06:37:37;;;;;;;9.10;1.60;;;;;;;;;;5065862;28;20213;-79
2021/11/05 06:40:07;;;;;;;5.47;1.87;;;;;;;;;;5066074;28;20232;-79
2021/11/05 06:42:34;;;;;;;8.83;1.90;;;;;;;;;;5064370;28;20217;-79
2021/11/05 06:45:00;;;;;;;9.17;2.03;;;;;;;;;;5066657;28;20245;-79
2021/11/05 06:47:29;;;;;;;6.00;1.77;;;;;;;;;;5065026;28;20240;-79
2021/11/05 06:49:55;;;;;;;7.23;2.43;;;;;;;;;;5062515;28;20241;-79
2021/11/05 06:52:22;;;;;;;7.17;1.90;;;;;;;;;;5064408;28;20644;-80
2021/11/05 06:54:49;;;;;;;8.67;2.50;;;;;;;;;;5066568;28;20229;-79
2021/11/05 06:57:16;;;;;;;8.80;1.83;;;;;;;;;;5063027;28;20210;-79
2021/11/05 06:59:43;;;;;;;12.93;2.60;;;;;;;;;;5064182;28;20234;-79
2021/11/05 07:02:10;;;;;;;7.03;1.77;;;;;;;;;;5065281;28;20207;-79
2021/11/05 07:04:36;;;;;;;6.30;2.00;;;;;;;;;;5065267;28;20209;-79
2021/11/05 07:07:03;;;;;;;7.00;1.50;;;;;;;;;;5067444;28;20220;-79
2021/11/05 07:09:30;;;;;;;6.20;1.70;;;;;;;;;;5064612;28;20218;-77
2021/11/05 07:11:56;;;;;;;8.97;1.50;;;;;;;;;;5062510;28;20218;-79
2021/11/05 07:14:24;;;;;;;7.10;2.00;;;;;;;;;;5066546;28;20646;-79
2021/11/05 07:16:51;;;;;;;9.50;2.00;;;;;;;;;;5064840;28;20337;-79
2021/11/05 07:19:24;;;;;;;4.80;1.73;;;;;;;;;;5067088;28;20215;-79
2021/11/05 07:21:58;;;;;;;5.40;1.70;;;;;;;;;;5067210;28;20207;-79
2021/11/05 07:24:24;;;;;;;6.57;1.70;;;;;;;;;;5065409;28;20227;-79
2021/11/05 07:26:51;;;;;;;8.63;1.97;;;;;;;;;;5067597;28;20196;-79
2021/11/05 07:29:23;;;;;;;8.03;1.93;;;;;;;;;;5066153;28;20222;-79
2021/11/05 07:31:51;;;;;;;5.37;1.67;;;;;;;;;;5066025;28;20222;-79
2021/11/05 07:34:17;;;;;;;5.47;2.00;;;;;;;;;;5065860;28;20621;-79
2021/11/05 07:36:44;;;;;;;8.53;1.87;;;;;;;;;;5064330;28;20203;-79
2021/11/05 07:39:10;;;;;;;9.73;1.90;;;;;;;;;;5066014;28;20252;-79
2021/11/05 07:41:36;;;;;;;5.77;1.40;;;;;;;;;;5066008;28;20218;-79
2021/11/05 07:44:04;;;;;;;8.50;1.97;;;;;;;;;;5065546;28;20240;-79
2021/11/05 07:46:31;;;;;;;7.20;1.80;;;;;;;;;;5068982;28;20280;-79
2021/11/05 07:48:59;;;;;;;6.37;1.80;;;;;;;;;;5067723;28;20609;-79
2021/11/05 07:51:28;;;;;;;9.40;2.23;;;;;;;;;;5067897;28;20238;-79
2021/11/05 07:53:54;;;;;;;10.63;3.10;;;;;;;;;;5068320;28;20266;-80
2021/11/05 07:56:21;;;;;;;10.83;3.00;;;;;;;;;;5064133;28;20265;-79
2021/11/05 07:58:47;;;;;;;6.63;3.10;;;;;;;;;;5065290;28;20277;-79
2021/11/05 08:01:14;;;;;;;9.40;3.80;;;;;;;;;;5065612;28;20219;-80
2021/11/05 08:03:41;;;;;;;7.63;3.13;;;;;;;;;;5068306;28;20290;-80
2021/11/05 08:06:09;;;;;;;5.90;3.20;;;;;;;;;;5063935;28;20232;-80
2021/11/05 08:08:35;;;;;;;13.57;4.00;;;;;;;;;;5063902;28;20802;-79
2021/11/05 08:11:02;;;;;;;8.00;3.83;;;;;;;;;;5064291;28;20214;-79
2021/11/05 08:13:28;;;;;;;9.67;4.23;;;;;;;;;;5065057;28;20235;-80
2021/11/05 08:15:54;;;;;;;7.67;4.00;;;;;;;;;;5065794;28;20253;-80
2021/11/05 08:18:21;;;;;;;10.10;4.40;;;;;;;;;;5064455;28;20209;-79
2021/11/05 08:20:48;;;;;;;7.23;4.10;;;;;;;;;;5064254;28;20201;-79
2021/11/05 08:23:16;;;;;;;6.20;3.20;;;;;;;;;;5062956;28;20231;-79
2021/11/05 08:25:47;;;;;;;9.90;3.67;;;;;;;;;;5064696;28;20211;-79
2021/11/05 08:28:14;;;;;;;7.47;3.10;;;;;;;;;;5064320;28;20615;-79
2021/11/05 08:30:40;;;;;;;8.07;2.77;;;;;;;;;;5064479;28;20223;-79
2021/11/05 08:33:07;;;;;;;6.80;3.07;;;;;;;;;;5066488;28;20242;-79
2021/11/05 08:35:34;;;;;;;9.20;3.33;;;;;;;;;;5064226;28;20232;-79
2021/11/05 08:38:02;;;;;;;7.10;3.03;;;;;;;;;;5067069;28;20266;-80
2021/11/05 08:40:31;;;;;;;7.60;3.03;;;;;;;;;;5067063;28;20497;-79
2021/11/05 08:42:59;;;;;;;7.50;3.10;;;;;;;;;;5065387;28;20258;-79
2021/11/05 08:45:25;;;;;;;7.07;2.80;;;;;;;;;;5062655;28;20223;-79
2021/11/05 08:47:52;;;;;;;7.33;2.67;;;;;;;;;;5062116;28;20269;-79
2021/11/05 08:50:22;;;;;;;8.27;2.87;;;;;;;;;;5065415;28;20223;-79
2021/11/05 08:52:48;;;;;;;12.93;3.27;;;;;;;;;;5069220;28;20642;-79
2021/11/05 08:55:16;;;;;;;8.60;3.23;;;;;;;;;;5070737;28;20228;-79
2021/11/05 08:57:45;;;;;;;6.90;3.07;;;;;;;;;;5069532;28;20209;-79
2021/11/05 09:00:14;;;;;;;6.20;2.50;;;;;;;;;;5070814;28;20563;-79
2021/11/05 09:02:41;;;;;;;10.43;3.00;;;;;;;;;;5071388;28;20272;-79
2021/11/05 09:05:08;;;;;;;8.53;2.50;;;;;;;;;;5064391;28;20235;-79
2021/11/05 09:07:34;;;;;;;8.53;2.43;;;;;;;;;;5066130;28;20586;-79
2021/11/05 09:10:01;;;;;;;4.87;2.10;;;;;;;;;;5064006;28;20227;-79
2021/11/05 09:12:28;;;;;;;3.37;2.00;;;;;;;;;;5064742;28;20212;-79
2021/11/05 09:14:56;;;;;;;8.67;2.37;;;;;;;;;;5066106;28;20237;-79
2021/11/05 09:17:23;;;;;;;5.27;1.90;;;;;;;;;;5065455;28;20675;-79
2021/11/05 09:19:49;;;;;;;6.93;2.07;;;;;;;;;;5070447;28;20223;-79
2021/11/05 09:22:16;;;;;;;6.73;1.83;;;;;;;;;;5065758;28;20209;-79
2021/11/05 09:24:42;;;;;;;6.07;1.90;;;;;;;;;;5065260;28;20268;-79
2021/11/05 09:27:09;;;;;;;4.93;1.77;;;;;;;;;;5071465;28;20209;-79
2021/11/05 09:29:36;;;;;;;6.63;1.63;;;;;;;;;;5068315;28;20268;-78
2021/11/05 09:32:04;;;;;;;6.57;2.17;;;;;;;;;;5067585;28;20658;-78
2021/11/05 09:34:32;;;;;;;6.87;1.67;;;;;;;;;;5063171;28;20226;-78
2021/11/05 09:36:59;;;;;;;3.70;1.47;;;;;;;;;;5061234;28;20226;-78
2021/11/05 09:39:26;;;;;;;6.80;1.60;;;;;;;;;;5058700;28;20225;-78
2021/11/05 09:41:52;;;;;;;5.13;1.43;;;;;;;;;;5056298;28;20217;-78
2021/11/05 09:44:19;;;;;;;5.47;1.60;;;;;;;;;;5054584;28;20275;-77
2021/11/05 09:46:46;;;;;;;7.07;1.40;;;;;;;;;;5056161;28;20628;-77
2021/11/05 09:49:14;;;;;;;4.03;1.10;;;;;;;;;;5053162;28;20232;-76
2021/11/05 09:51:41;;;;;;;4.63;1.00;;;;;;;;;;5054668;28;20252;-76
2021/11/05 09:54:07;;;;;;;4.83;0.90;;;;;;;;;;5054088;28;20241;-76
2021/11/05 09:56:34;;;;;;;5.93;0.93;;;;;;;;;;5054587;28;21536;-76
2021/11/05 09:59:00;;;;;;;5.63;1.20;;;;;;;;;;5054748;28;20224;-75
2021/11/05 10:01:27;;;;;;;5.27;1.13;;;;;;;;;;5051964;28;20680;-77
2021/11/05 10:03:54;;;;;;;6.63;1.30;;;;;;;;;;5055696;28;20271;-76
2021/11/05 10:06:24;;;;;;;5.40;1.30;;;;;;;;;;5051761;28;20685;-76
2021/11/05 10:08:52;;;;;;;6.80;1.50;;;;;;;;;;5052143;28;20245;-76
2021/11/05 10:11:25;;;;;;;7.50;1.53;;;;;;;;;;5054164;28;20209;-75
2021/11/05 10:13:52;;;;;;;4.57;0.80;;;;;;;;;;5051569;28;20289;-75
2021/11/05 10:16:20;;;;;;;4.90;1.30;;;;;;;;;;5054533;28;20213;-75
2021/11/05 10:19:00;;;;;;;5.17;1.30;;;;;;;;;;5052986;28;20228;-75
2021/11/05 10:21:38;;;;;;;9.40;1.40;;;;;;;;;;5054972;28;20217;-75
2021/11/05 10:24:10;;;;;;;4.20;1.00;;;;;;;;;;5054839;28;20278;-76
2021/11/05 10:26:36;;;;;;;5.40;0.90;;;;;;;;;;5055165;28;20217;-76
2021/11/05 10:29:06;;;;;;;3.90;0.97;;;;;;;;;;5053730;28;20218;-76
2021/11/05 10:31:34;;;;;;;6.37;1.63;;;;;;;;;;5055396;28;20283;-76
2021/11/05 10:34:01;;;;;;;2.63;0.80;;;;;;;;;;5053243;28;20229;-76
2021/11/05 10:36:31;;;;;;;6.17;1.50;;;;;;;;;;5051838;28;20645;-76
2021/11/05 10:39:00;;;;;;;2.83;1.00;;;;;;;;;;5053462;28;20230;-77
2021/11/05 10:41:29;;;;;;;5.20;0.90;;;;;;;;;;5053810;28;20220;-76
2021/11/05 10:43:57;;;;;;;4.90;1.20;;;;;;;;;;5053502;28;20263;-77
2021/11/05 10:46:31;;;;;;;10.20;1.20;;;;;;;;;;5055360;28;20328;-77
2021/11/05 10:49:01;;;;;;;5.07;1.10;;;;;;;;;;5055739;28;20244;-77
2021/11/05 10:51:30;;;;;;;3.97;0.63;;;;;;;;;;5053512;28;20710;-76
2021/11/05 10:53:58;;;;;;;4.73;1.07;;;;;;;;;;5053361;28;20249;-76
2021/11/05 10:56:29;;;;;;;4.97;0.80;;;;;;;;;;5055149;28;20221;-78
2021/11/05 10:58:58;;;;;;;3.77;1.10;;;;;;;;;;5071211;28;20221;-79
2021/11/05 11:01:26;;;;;;;2.53;0.50;;;;;;;;;;5068885;28;20276;-77
2021/11/05 11:03:55;;;;;;;2.53;0.20;;;;;;;;;;5055014;28;20663;-77
2021/11/05 11:06:23;;;;;;;3.40;0.50;;;;;;;;;;5055222;28;20225;-78
2021/11/05 11:08:54;;;;;;;2.90;0.67;;;;;;;;;;5064312;28;20570;-77
2021/11/05 11:11:25;;;;;;;2.67;0.90;;;;;;;;;;5071557;28;20236;-79
2021/11/05 11:13:53;;;;;;;1.47;0.40;;;;;;;;;;5069881;28;20246;-79
2021/11/05 11:16:23;;;;;;;3.00;0.43;;;;;;;;;;5069824;28;20282;-79
2021/11/05 11:18:52;;;;;;;1.07;0.30;;;;;;;;;;5071252;28;20449;-79
2021/11/05 11:21:20;;;;;;;2.80;0.60;;;;;;;;;;5071153;28;20228;-79
2021/11/05 11:23:46;;;;;;;2.77;0.60;;;;;;;;;;5066206;28;20225;-77
2021/11/05 11:26:16;;;;;;;3.40;0.40;;;;;;;;;;5053415;28;20213;-76
2021/11/05 11:28:43;;;;;;;5.37;0.50;;;;;;;;;;5054073;28;20706;-77
2021/11/05 11:31:12;;;;;;;0.97;0.20;;;;;;;;;;5052549;28;20231;-77
2021/11/05 11:33:39;;;;;;;1.37;0.30;;;;;;;;;;5052891;28;20836;-77
2021/11/05 11:36:07;;;;;;;3.50;0.40;;;;;;;;;;5054153;28;20247;-77
2021/11/05 11:38:34;;;;;;;3.73;0.43;;;;;;;;;;5051674;28;20640;-77
2021/11/05 11:41:00;;;;;;;2.57;0.60;;;;;;;;;;5059520;28;20216;-80
2021/11/05 11:43:31;;;;;;;5.07;0.50;;;;;;;;;;5058044;28;20301;-77
2021/11/05 11:46:00;;;;;;;4.53;0.50;;;;;;;;;;5053411;28;20225;-77
2021/11/05 11:48:52;;;;;;;3.67;0.80;;;;;;;;;;5054114;28;20221;-77
2021/11/05 11:51:32;;;;;;;7.90;0.87;;;;;;;;;;5051435;28;20217;-77
2021/11/05 11:54:09;;;;;;;3.00;1.00;;;;;;;;;;5053966;28;20241;-77
2021/11/05 11:56:39;;;;;;;5.67;0.70;;;;;;;;;;5055955;28;20221;-78
2021/11/05 11:59:12;;;;;;;5.23;0.70;;;;;;;;;;5052712;28;20236;-77
2021/11/05 12:01:41;;;;;;;3.63;1.23;;;;;;;;;;5052753;28;20213;-77
2021/11/05 12:04:09;;;;;;;3.93;0.80;;;;;;;;;;5054510;28;20246;-77
2021/11/05 12:07:00;;;;;;;3.60;0.70;;;;;;;;;;5053043;28;20260;-77
2021/11/05 12:09:28;;;;;;;8.20;1.13;;;;;;;;;;5051973;28;20246;-77
2021/11/05 12:12:31;;;;;;;5.07;0.80;;;;;;;;;;5052457;28;20221;-77
2021/11/05 12:15:25;;;;;;;3.23;0.73;;;;;;;;;;5052198;28;20729;-77
2021/11/05 12:18:19;;;;;;;4.00;0.90;;;;;;;;;;5050942;28;20658;-77
2021/11/05 12:20:45;;;;;;;3.93;0.70;;;;;;;;;;5023733;28;20245;-77
2021/11/05 12:23:22;;;;;;;3.33;0.60;;;;;;;;;;5056852;28;20760;-78
2021/11/05 12:25:58;;;;;;;5.13;0.80;;;;;;;;;;5060772;28;20752;-78
2021/11/05 12:28:29;;;;;;;4.37;0.70;;;;;;;;;;5055929;28;20207;-78
2021/11/05 12:31:25;;;;;;;7.57;0.73;;;;;;;;;;5057171;28;20268;-78
2021/11/05 12:33:52;;;;;;;6.90;1.23;;;;;;;;;;5057573;28;20237;-78
2021/11/05 12:36:19;;;;;;;5.13;0.67;;;;;;;;;;5060379;28;20214;-78
2021/11/05 12:39:00;;;;;;;8.37;1.50;;;;;;;;;;5059750;28;20237;-77
2021/11/05 12:41:27;;;;;;;3.80;0.57;;;;;;;;;;5059286;28;20241;-78
2021/11/05 12:43:54;;;;;;;5.10;1.10;;;;;;;;;;5058769;28;20233;-78
2021/11/05 12:46:24;;;;;;;7.40;1.07;;;;;;;;;;5060791;28;20218;-78
2021/11/05 12:48:57;;;;;;;4.23;0.97;;;;;;;;;;5059508;28;20213;-78
2021/11/05 12:51:26;;;;;;;3.47;0.80;;;;;;;;;;5058273;28;20354;-78
2021/11/05 12:54:13;;;;;;;4.43;1.17;;;;;;;;;;5059373;28;20222;-78
2021/11/05 12:56:41;;;;;;;6.93;1.67;;;;;;;;;;5064032;28;20631;-78
2021/11/05 12:59:09;;;;;;;4.30;1.00;;;;;;;;;;5058803;28;20225;-78
2021/11/05 13:01:37;;;;;;;3.60;0.77;;;;;;;;;;5053966;28;20212;-78
2021/11/05 13:04:10;;;;;;;6.27;0.80;;;;;;;;;;5050775;28;20652;-77
2021/11/05 13:06:40;;;;;;;5.03;0.80;;;;;;;;;;5049596;28;20669;-77
2021/11/05 13:09:20;;;;;;;3.87;0.90;;;;;;;;;;5050585;28;20242;-77
2021/11/05 13:12:04;;;;;;;3.77;0.90;;;;;;;;;;5050190;28;20305;-77
2021/11/05 13:14:51;;;;;;;5.07;1.00;;;;;;;;;;5052167;28;20242;-78
2021/11/05 13:17:22;;;;;;;4.10;0.63;;;;;;;;;;5052601;28;20229;-77
2021/11/05 13:19:54;;;;;;;4.50;0.73;;;;;;;;;;5052804;28;20754;-78
2021/11/05 13:22:23;;;;;;;3.33;0.87;;;;;;;;;;5053556;28;20609;-77
2021/11/05 13:24:50;;;;;;;4.07;0.87;;;;;;;;;;5051547;28;20229;-77
2021/11/05 13:27:17;;;;;;;2.23;0.60;;;;;;;;;;5050240;28;20547;-77
2021/11/05 13:29:48;;;;;;;3.83;0.73;;;;;;;;;;5053062;28;20233;-78
2021/11/05 13:32:17;;;;;;;3.23;1.00;;;;;;;;;;5049652;28;20248;-78
2021/11/05 13:34:45;;;;;;;4.87;1.00;;;;;;;;;;5054433;28;20287;-78
2021/11/05 13:37:13;;;;;;;5.53;1.63;;;;;;;;;;5054967;28;20858;-78
2021/11/05 13:39:39;;;;;;;6.33;1.00;;;;;;;;;;5058219;28;20234;-78
2021/11/05 13:42:14;;;;;;;4.07;0.87;;;;;;;;;;5058964;28;20279;-78
2021/11/05 13:44:41;;;;;;;5.77;1.13;;;;;;;;;;5061039;28;20266;-78
2021/11/05 13:47:15;;;;;;;5.83;1.27;;;;;;;;;;5058114;28;20563;-78
2021/11/05 13:49:42;;;;;;;3.63;1.10;;;;;;;;;;5058849;28;20259;-78
2021/11/05 13:52:10;;;;;;;9.20;1.30;;;;;;;;;;5060995;28;20206;-78
2021/11/05 13:54:43;;;;;;;6.93;1.10;;;;;;;;;;5059812;28;20245;-78
2021/11/05 13:57:14;;;;;;;5.13;1.77;;;;;;;;;;5059587;28;20212;-78
2021/11/05 13:59:41;;;;;;;4.00;1.17;;;;;;;;;;5059473;28;20891;-78
2021/11/05 14:02:08;;;;;;;5.70;0.87;;;;;;;;;;5060126;28;20577;-77
2021/11/05 14:04:35;;;;;;;6.63;1.07;;;;;;;;;;5056310;28;20616;-77
2021/11/05 14:07:13;;;;;;;3.60;0.80;;;;;;;;;;5058957;28;20214;-78
2021/11/05 14:09:40;;;;;;;7.33;0.80;;;;;;;;;;5057662;28;20242;-78
2021/11/05 14:12:13;;;;;;;6.60;0.93;;;;;;;;;;5057387;28;20258;-78
2021/11/05 14:14:48;;;;;;;4.40;0.87;;;;;;;;;;5056097;28;20340;-78
2021/11/05 14:17:17;;;;;;;4.13;0.60;;;;;;;;;;5057144;28;20217;-78
2021/11/05 14:19:52;;;;;;;7.13;1.20;;;;;;;;;;5057582;28;20213;-78
2021/11/05 14:22:21;;;;;;;5.57;0.90;;;;;;;;;;5058242;28;20213;-78
2021/11/05 14:24:52;;;;;;;7.00;1.07;;;;;;;;;;5056519;28;20238;-78
2021/11/05 14:27:27;;;;;;;5.57;0.90;;;;;;;;;;5056911;28;20222;-77
2021/11/05 14:29:55;;;;;;;4.90;1.17;;;;;;;;;;5057474;28;20245;-79
2021/11/05 14:32:31;;;;;;;11.20;1.37;;;;;;;;;;5057897;28;20264;-77
2021/11/05 14:35:01;;;;;;;5.00;0.80;;;;;;;;;;5058115;28;20235;-78
2021/11/05 14:37:31;;;;;;;6.43;1.17;;;;;;;;;;5055844;28;20213;-78
2021/11/05 14:40:00;;;;;;;5.53;0.97;;;;;;;;;;5055679;28;20620;-78
2021/11/05 14:42:30;;;;;;;3.60;0.73;;;;;;;;;;5058267;28;20266;-77
2021/11/05 14:44:58;;;;;;;8.27;1.23;;;;;;;;;;5055925;28;21112;-77
2021/11/05 14:47:25;;;;;;;9.20;1.10;;;;;;;;;;5055400;28;20664;-78
2021/11/05 14:50:07;;;;;;;2.63;0.70;;;;;;;;;;5054746;28;20209;-78